AOH weather

Lima Allen County Airport
Lima, Ohio, United States

Public forecast

Using degrees Fahrenheit for public forecast. Weather courtesy of forecast.io.

METAR (pilot weather report)

Retrieved 2019/05/23 11:53 UTC (1 hour ago):

KAOH 231153Z AUTO 24008G22KT 5SM RA BR BKN090 OVC110 18/17 A3006 RMK AO2 PK WND 25029/1113 RAE1058B15 PRESFR SLP173 P0009 60010 70017 T01830167 10222 20183 $

TAF (pilot weather forecast)

Closest forecast is Findlay Airport, 24.6 nm (45.5 km) NE. Retrieved 2019/05/23 12:42 UTC (17 minutes ago):

TAF KFDY 231139Z 2312/2412 25015G25KT 5SM -SHRA SCT035 OVC050 FM231300 24010KT P6SM OVC080 WS020/25045KT FM231500 24015G25KT P6SM BKN040 FM231700 27020G30KT P6SM SCT050 BKN080 FM240100 30009KT P6SM FEW250